Time;durP1;ratioP1;P1;durP2;ratioP2;P2;SDS_P1;SDS_P2;PMS_P1;PMS_P2;Temp;Humidity;BMP_temperature;BMP_pressure;BME280_temperature;BME280_humidity;BME280_pressure;Samples;Min_cycle;Max_cycle;Signal;HPM_P1;HPM_P2
2022/12/01 00:01:40;;;;;;;20.07;7.20;;;3.30;99.90;;;;;;5011747;28;20265;-69
2022/12/01 00:04:05;;;;;;;20.53;6.23;;;3.30;99.90;;;;;;5012169;28;20183;-69
2022/12/01 00:06:31;;;;;;;11.50;6.03;;;3.20;99.90;;;;;;5012205;28;20183;-69
2022/12/01 00:11:41;;;;;;;19.10;8.00;;;3.20;99.90;;;;;;5011805;28;20471;-69
2022/12/01 00:14:06;;;;;;;23.80;7.73;;;3.20;99.90;;;;;;5011338;28;20430;-69
2022/12/01 00:16:32;;;;;;;21.63;7.57;;;3.20;99.90;;;;;;5011878;28;20238;-69
2022/12/01 00:18:59;;;;;;;17.40;7.97;;;3.10;99.90;;;;;;5009899;28;20194;-69
2022/12/01 00:21:25;;;;;;;18.80;6.87;;;3.10;99.90;;;;;;5012127;28;20465;-69
2022/12/01 00:23:53;;;;;;;25.90;7.43;;;3.10;99.90;;;;;;5010448;28;20484;-69
2022/12/01 00:26:20;;;;;;;16.77;6.87;;;3.10;99.90;;;;;;5003343;28;20438;-69
2022/12/01 00:28:56;;;;;;;16.90;6.80;;;3.10;99.90;;;;;;4999260;28;20438;-69
2022/12/01 00:31:23;;;;;;;13.50;7.07;;;3.10;99.90;;;;;;5008365;28;20476;-69
2022/12/01 00:33:48;;;;;;;13.60;6.93;;;3.10;99.90;;;;;;5011324;28;20433;-69
2022/12/01 00:36:14;;;;;;;22.23;9.50;;;3.10;99.90;;;;;;5011628;28;20426;-69
2022/12/01 00:38:40;;;;;;;19.40;9.67;;;3.00;99.90;;;;;;5010769;28;20596;-69
2022/12/01 00:41:06;;;;;;;17.63;8.20;;;3.00;99.90;;;;;;5011800;28;20218;-69
2022/12/01 00:43:31;;;;;;;23.07;7.87;;;3.00;99.90;;;;;;5000130;28;20534;-69
2022/12/01 00:45:57;;;;;;;16.43;8.13;;;3.00;99.90;;;;;;5007526;28;20211;-69
2022/12/01 00:48:23;;;;;;;20.33;8.17;;;3.00;99.90;;;;;;5005398;28;20234;-67
2022/12/01 00:50:53;;;;;;;18.30;8.20;;;3.00;99.90;;;;;;5009242;28;20188;-68
2022/12/01 00:53:19;;;;;;;28.27;8.80;;;3.00;99.90;;;;;;5010779;28;20210;-68
2022/12/01 00:55:45;;;;;;;14.47;7.77;;;3.00;99.90;;;;;;5011659;28;20536;-68
2022/12/01 00:58:11;;;;;;;16.80;7.17;;;3.00;99.90;;;;;;5011249;28;20541;-68
2022/12/01 01:00:37;;;;;;;25.03;10.03;;;3.00;99.90;;;;;;5011297;28;20199;-68
2022/12/01 01:03:05;;;;;;;18.60;7.57;;;3.00;99.90;;;;;;5011367;28;20748;-69
2022/12/01 01:05:33;;;;;;;20.30;10.00;;;3.00;99.90;;;;;;5011689;28;20871;-69
2022/12/01 01:07:59;;;;;;;16.17;9.23;;;3.00;99.90;;;;;;5011697;28;20838;-68
2022/12/01 01:10:24;;;;;;;14.70;7.97;;;3.00;99.90;;;;;;5011856;28;20425;-69
2022/12/01 01:12:50;;;;;;;29.67;9.70;;;2.90;99.90;;;;;;5011224;28;20195;-69
2022/12/01 01:15:16;;;;;;;23.80;9.30;;;2.90;99.90;;;;;;5010735;28;20191;-68
2022/12/01 01:17:41;;;;;;;21.87;9.23;;;3.00;99.90;;;;;;5011118;28;20648;-69
2022/12/01 01:20:07;;;;;;;16.40;8.27;;;3.00;99.90;;;;;;5009455;28;20663;-69
2022/12/01 01:22:34;;;;;;;26.33;9.20;;;2.90;99.90;;;;;;5011011;28;20202;-69
2022/12/01 01:25:00;;;;;;;17.80;8.97;;;2.90;99.90;;;;;;5004980;28;20840;-69
2022/12/01 01:27:25;;;;;;;22.30;8.90;;;2.90;99.90;;;;;;5011562;28;20430;-69
2022/12/01 01:29:51;;;;;;;16.50;7.37;;;2.90;99.90;;;;;;5011998;28;20219;-69
2022/12/01 01:32:16;;;;;;;19.93;8.17;;;2.90;99.90;;;;;;5010603;28;20192;-69
2022/12/01 01:34:42;;;;;;;22.73;9.53;;;2.90;99.90;;;;;;5009707;28;20238;-69
2022/12/01 01:37:08;;;;;;;15.00;8.63;;;2.90;99.90;;;;;;5015206;28;20188;-69
2022/12/01 01:39:33;;;;;;;18.30;9.27;;;2.90;99.90;;;;;;5014687;28;20644;-69
2022/12/01 01:41:59;;;;;;;20.70;9.30;;;2.90;99.90;;;;;;5014909;28;20298;-69
2022/12/01 01:44:49;;;;;;;18.93;9.27;;;3.00;99.90;;;;;;5014195;28;20187;-69
2022/12/01 01:47:19;;;;;;;23.90;11.00;;;3.00;99.90;;;;;;5015127;28;20193;-69
2022/12/01 01:49:45;;;;;;;24.20;8.83;;;3.00;99.90;;;;;;5006604;28;20421;-68
2022/12/01 01:52:11;;;;;;;17.53;8.90;;;3.00;99.90;;;;;;5002875;28;20453;-69
2022/12/01 01:54:41;;;;;;;20.33;9.83;;;2.90;99.90;;;;;;5014878;28;20446;-69
2022/12/01 01:57:10;;;;;;;29.80;12.43;;;2.90;99.90;;;;;;5015643;28;20426;-68
2022/12/01 01:59:41;;;;;;;21.37;10.43;;;2.90;99.90;;;;;;5014236;28;20430;-69
2022/12/01 02:02:11;;;;;;;28.03;9.70;;;2.90;99.90;;;;;;4999408;28;20493;-68
2022/12/01 02:04:50;;;;;;;19.67;9.17;;;2.90;99.90;;;;;;4997871;28;20437;-70
2022/12/01 02:07:18;;;;;;;19.47;9.33;;;2.80;99.90;;;;;;5016542;28;20414;-68
2022/12/01 02:09:44;;;;;;;23.60;9.97;;;2.90;99.90;;;;;;5005354;28;20875;-68
2022/12/01 02:12:40;;;;;;;22.27;9.13;;;2.80;99.90;;;;;;4998202;28;20435;-68
2022/12/01 02:15:24;;;;;;;18.00;8.60;;;2.80;99.90;;;;;;5018270;28;20426;-68
2022/12/01 02:18:06;;;;;;;20.67;9.03;;;2.80;99.90;;;;;;5034867;28;20421;-67
2022/12/01 02:20:35;;;;;;;25.10;11.10;;;2.80;99.90;;;;;;5036705;28;20454;-68
2022/12/01 02:23:19;;;;;;;27.67;10.80;;;2.80;99.90;;;;;;5023410;28;20415;-68
2022/12/01 02:26:22;;;;;;;26.57;8.30;;;2.90;99.90;;;;;;5012713;28;20406;-68
2022/12/01 02:29:12;;;;;;;22.50;10.13;;;2.90;99.90;;;;;;4962240;28;20457;-69
2022/12/01 02:32:08;;;;;;;23.63;11.17;;;2.80;99.90;;;;;;5003010;28;20423;-68
2022/12/01 02:35:03;;;;;;;28.47;10.73;;;2.80;99.90;;;;;;5007137;28;20445;-68
2022/12/01 02:37:48;;;;;;;22.70;8.83;;;2.90;99.90;;;;;;5007831;28;20417;-68
2022/12/01 02:40:27;;;;;;;25.07;8.83;;;2.90;99.90;;;;;;5003975;28;20545;-68
2022/12/01 02:43:13;;;;;;;26.67;10.70;;;2.80;99.90;;;;;;5011703;28;20414;-68
2022/12/01 02:45:57;;;;;;;28.33;10.83;;;2.80;99.90;;;;;;4996334;28;20487;-68
2022/12/01 02:48:26;;;;;;;21.30;8.97;;;2.80;99.90;;;;;;5007608;28;20947;-67
2022/12/01 02:50:53;;;;;;;23.03;10.07;;;2.80;99.90;;;;;;4994151;28;20928;-68
2022/12/01 02:53:19;;;;;;;27.57;11.37;;;2.80;99.90;;;;;;5003729;28;20422;-68
2022/12/01 02:55:53;;;;;;;23.20;9.77;;;2.80;99.90;;;;;;4996475;28;20439;-68
2022/12/01 02:58:19;;;;;;;20.07;10.47;;;2.80;99.90;;;;;;4993601;28;20427;-67
2022/12/01 03:01:19;;;;;;;28.03;8.67;;;2.80;99.90;;;;;;5011402;28;20548;-68
2022/12/01 03:04:07;;;;;;;18.20;8.53;;;2.80;99.90;;;;;;5012799;28;20422;-68
2022/12/01 03:07:14;;;;;;;19.37;9.80;;;2.80;99.90;;;;;;5001364;28;20916;-68
2022/12/01 03:10:04;;;;;;;19.17;8.87;;;2.70;99.90;;;;;;4985327;28;20927;-69
2022/12/01 03:12:58;;;;;;;19.10;10.40;;;2.70;99.90;;;;;;4996168;28;20444;-69
2022/12/01 03:15:34;;;;;;;18.43;10.73;;;2.70;99.90;;;;;;5005250;28;20414;-68
2022/12/01 03:18:09;;;;;;;18.90;9.00;;;2.60;99.90;;;;;;5011561;28;20415;-69
2022/12/01 03:20:41;;;;;;;23.27;10.37;;;2.70;99.90;;;;;;5014873;28;20557;-68
2022/12/01 03:23:17;;;;;;;18.87;9.10;;;2.70;99.90;;;;;;5000782;28;20426;-69
2022/12/01 03:25:47;;;;;;;19.00;8.20;;;2.70;99.90;;;;;;4998132;28;20431;-68
2022/12/01 03:28:16;;;;;;;19.13;9.90;;;2.70;99.90;;;;;;5011898;28;20835;-69
2022/12/01 03:30:44;;;;;;;21.77;8.57;;;2.60;99.90;;;;;;5013104;28;20472;-69
2022/12/01 03:33:18;;;;;;;19.80;9.60;;;2.70;99.90;;;;;;5009633;28;20432;-69
2022/12/01 03:36:04;;;;;;;20.27;8.83;;;2.60;99.90;;;;;;5013063;28;20425;-69
2022/12/01 03:38:32;;;;;;;21.40;10.73;;;2.60;99.90;;;;;;5012620;28;20446;-69
2022/12/01 03:41:02;;;;;;;24.23;10.80;;;2.60;99.90;;;;;;5012431;28;22280;-69
2022/12/01 03:43:33;;;;;;;28.03;9.80;;;2.60;99.90;;;;;;5011899;28;20457;-68
2022/12/01 03:46:21;;;;;;;24.60;10.37;;;2.60;99.90;;;;;;4999035;28;20421;-68
2022/12/01 03:48:46;;;;;;;18.80;9.87;;;2.60;99.90;;;;;;5012487;28;20436;-68
2022/12/01 03:51:32;;;;;;;20.40;8.90;;;2.60;99.90;;;;;;5012203;28;20426;-68
2022/12/01 03:54:02;;;;;;;19.77;10.07;;;2.60;99.90;;;;;;4998488;28;20624;-68
2022/12/01 03:56:33;;;;;;;27.83;11.00;;;2.60;99.90;;;;;;5002399;28;20433;-68
2022/12/01 03:59:01;;;;;;;24.10;9.87;;;2.60;99.90;;;;;;4996401;28;20418;-68
2022/12/01 04:01:32;;;;;;;16.43;9.40;;;2.60;99.90;;;;;;5004199;28;20552;-68
2022/12/01 04:04:11;;;;;;;15.03;8.20;;;2.60;99.90;;;;;;5003794;28;20422;-68
2022/12/01 04:06:39;;;;;;;20.30;9.43;;;2.60;99.90;;;;;;4987582;28;20929;-68
2022/12/01 04:09:05;;;;;;;30.00;11.13;;;2.60;99.90;;;;;;5004800;28;20422;-68
2022/12/01 04:14:14;;;;;;;18.27;8.67;;;2.60;99.90;;;;;;5011962;28;20665;-69
2022/12/01 04:16:40;;;;;;;23.40;9.00;;;2.60;99.90;;;;;;5012329;28;20413;-68
2022/12/01 04:19:05;;;;;;;23.90;11.23;;;2.60;99.90;;;;;;5012369;28;20613;-68
2022/12/01 04:21:31;;;;;;;21.67;9.17;;;2.60;99.90;;;;;;4998701;28;20224;-68
2022/12/01 04:23:59;;;;;;;31.90;10.60;;;2.50;99.90;;;;;;4992036;28;20771;-68
2022/12/01 04:26:26;;;;;;;23.90;10.33;;;2.50;99.90;;;;;;4995412;28;20274;-68
2022/12/01 04:28:51;;;;;;;22.63;11.23;;;2.50;99.90;;;;;;5005402;28;20445;-68
2022/12/01 04:31:17;;;;;;;21.97;9.77;;;2.50;99.90;;;;;;5003042;28;20921;-68
2022/12/01 04:33:42;;;;;;;18.37;8.63;;;2.50;99.90;;;;;;5008278;28;20197;-68
2022/12/01 04:36:08;;;;;;;20.10;8.87;;;2.50;99.90;;;;;;4995814;28;20183;-68
2022/12/01 04:38:35;;;;;;;13.40;7.63;;;2.40;99.90;;;;;;5001084;28;20819;-68
2022/12/01 04:41:09;;;;;;;26.70;10.53;;;2.40;99.90;;;;;;4998081;28;20219;-68
2022/12/01 04:43:34;;;;;;;21.50;9.40;;;2.40;99.90;;;;;;5010830;28;20429;-68
2022/12/01 04:46:00;;;;;;;19.10;9.33;;;2.40;99.90;;;;;;4998033;28;20442;-68
2022/12/01 04:48:25;;;;;;;26.50;9.23;;;2.40;99.90;;;;;;5000757;28;20198;-68
2022/12/01 04:50:51;;;;;;;19.13;9.30;;;2.40;99.90;;;;;;5004038;28;20234;-68
2022/12/01 04:53:17;;;;;;;19.93;9.87;;;2.40;99.90;;;;;;5001511;28;20667;-68
2022/12/01 04:55:42;;;;;;;22.63;8.73;;;2.40;99.90;;;;;;4998352;28;20225;-68
2022/12/01 04:58:08;;;;;;;24.10;10.77;;;2.30;99.90;;;;;;4993163;28;20270;-68
2022/12/01 05:00:33;;;;;;;24.63;10.63;;;2.40;99.90;;;;;;4998631;28;20219;-68
2022/12/01 05:02:59;;;;;;;18.87;9.97;;;2.40;99.90;;;;;;5002549;28;20184;-68
2022/12/01 05:05:25;;;;;;;27.17;11.20;;;2.40;99.90;;;;;;5009531;28;20193;-68
2022/12/01 05:07:51;;;;;;;24.70;9.90;;;2.30;99.90;;;;;;4995939;28;20179;-69
2022/12/01 05:10:17;;;;;;;28.77;10.70;;;2.30;99.90;;;;;;4995954;28;20504;-68
2022/12/01 05:12:45;;;;;;;20.53;8.50;;;2.40;99.90;;;;;;5004495;28;20194;-68
2022/12/01 05:15:11;;;;;;;31.93;11.60;;;2.30;99.90;;;;;;5014946;28;20946;-68
2022/12/01 05:17:36;;;;;;;27.73;11.17;;;2.30;99.90;;;;;;5013602;28;20536;-68
2022/12/01 05:22:47;;;;;;;25.80;11.57;;;2.30;99.90;;;;;;5014952;28;20213;-68
2022/12/01 05:25:13;;;;;;;19.30;9.03;;;2.30;99.90;;;;;;5004452;28;20763;-68
2022/12/01 05:27:38;;;;;;;19.83;9.47;;;2.30;99.90;;;;;;5008862;28;20209;-68
2022/12/01 05:30:05;;;;;;;24.03;10.83;;;2.30;99.90;;;;;;5013381;28;20262;-68
2022/12/01 05:32:30;;;;;;;25.93;9.40;;;2.30;99.90;;;;;;5014933;28;20293;-68
2022/12/01 05:34:56;;;;;;;18.83;9.03;;;2.30;99.90;;;;;;5014820;28;20468;-68
2022/12/01 05:37:21;;;;;;;16.17;9.40;;;2.30;99.90;;;;;;5015005;28;20182;-68
2022/12/01 05:39:47;;;;;;;22.53;9.10;;;2.30;99.90;;;;;;4995074;28;20254;-68
2022/12/01 05:42:12;;;;;;;16.20;9.17;;;2.30;99.90;;;;;;5007977;28;20215;-68
2022/12/01 05:44:38;;;;;;;22.27;8.70;;;2.30;99.90;;;;;;5014008;28;20218;-68
2022/12/01 05:47:03;;;;;;;18.17;9.67;;;2.30;99.90;;;;;;5014969;28;20753;-69
2022/12/01 05:49:29;;;;;;;22.50;9.23;;;2.40;99.90;;;;;;5001462;28;20298;-68
2022/12/01 05:51:55;;;;;;;24.43;11.00;;;2.30;99.90;;;;;;5014573;28;20187;-68
2022/12/01 05:54:20;;;;;;;20.10;7.50;;;2.30;99.90;;;;;;5014634;28;20552;-69
2022/12/01 05:56:46;;;;;;;20.20;9.10;;;2.30;99.90;;;;;;5002754;28;20194;-68
2022/12/01 05:59:11;;;;;;;21.60;9.07;;;2.30;99.90;;;;;;5007496;28;20298;-68
2022/12/01 06:01:37;;;;;;;26.00;10.37;;;2.30;99.90;;;;;;5007014;28;20233;-68
2022/12/01 06:04:02;;;;;;;19.83;8.70;;;2.30;99.90;;;;;;5000846;28;20174;-68
2022/12/01 06:06:28;;;;;;;26.33;9.37;;;2.30;99.90;;;;;;4996981;28;20229;-68
2022/12/01 06:08:54;;;;;;;30.97;11.50;;;2.30;99.90;;;;;;5000920;28;20191;-68
2022/12/01 06:11:19;;;;;;;30.77;11.40;;;2.30;99.90;;;;;;5014520;28;20183;-69
2022/12/01 06:13:45;;;;;;;21.00;9.97;;;2.30;99.90;;;;;;4988525;28;20810;-69
2022/12/01 06:16:10;;;;;;;20.83;8.40;;;2.30;99.90;;;;;;4986086;28;20188;-69
2022/12/01 06:18:37;;;;;;;28.07;10.67;;;2.30;99.90;;;;;;4998561;28;20660;-68
2022/12/01 06:21:04;;;;;;;23.70;9.90;;;2.30;99.90;;;;;;5002444;28;20212;-69
2022/12/01 06:23:31;;;;;;;22.90;9.67;;;2.30;99.90;;;;;;5012978;28;20789;-68
2022/12/01 06:25:57;;;;;;;21.50;9.17;;;2.30;99.90;;;;;;4999009;28;20822;-69
2022/12/01 06:28:22;;;;;;;26.13;9.47;;;2.20;99.90;;;;;;5012146;28;21100;-69
2022/12/01 06:30:48;;;;;;;24.23;9.40;;;2.20;99.90;;;;;;4995985;28;20439;-69
2022/12/01 06:33:13;;;;;;;21.87;9.90;;;2.30;99.90;;;;;;4999390;28;20187;-69
2022/12/01 06:35:39;;;;;;;41.20;11.60;;;2.30;99.90;;;;;;5014252;28;20183;-69
2022/12/01 06:38:05;;;;;;;25.03;9.10;;;2.30;99.90;;;;;;5013983;28;20209;-68
2022/12/01 06:40:30;;;;;;;16.07;6.50;;;2.30;99.90;;;;;;5013090;28;20210;-69
2022/12/01 06:43:00;;;;;;;23.67;9.37;;;2.40;99.90;;;;;;5010002;28;20640;-69
2022/12/01 06:45:26;;;;;;;24.70;9.50;;;2.30;99.90;;;;;;4999562;28;20616;-68
2022/12/01 06:47:56;;;;;;;20.57;8.03;;;2.30;99.90;;;;;;5000472;28;20418;-68
2022/12/01 06:50:22;;;;;;;20.90;9.23;;;2.30;99.90;;;;;;5013449;28;20183;-68
2022/12/01 06:52:48;;;;;;;17.87;8.70;;;2.30;99.90;;;;;;5013253;28;20440;-68
2022/12/01 06:55:13;;;;;;;20.00;9.23;;;2.30;99.90;;;;;;5013167;28;20815;-68
2022/12/01 06:57:39;;;;;;;20.50;9.47;;;2.40;99.90;;;;;;5001325;28;20199;-69
2022/12/01 07:00:05;;;;;;;21.20;8.87;;;2.40;99.90;;;;;;5012424;28;20700;-68
2022/12/01 07:02:31;;;;;;;20.97;10.03;;;2.30;99.90;;;;;;5012954;28;20668;-68
2022/12/01 07:04:57;;;;;;;24.10;9.40;;;2.30;99.90;;;;;;5005460;28;20434;-68
2022/12/01 07:07:23;;;;;;;18.77;9.27;;;2.30;99.90;;;;;;5013338;28;20565;-68
2022/12/01 07:09:48;;;;;;;23.13;9.37;;;2.30;99.90;;;;;;4999830;28;20602;-68
2022/12/01 07:12:14;;;;;;;21.10;9.30;;;2.30;99.90;;;;;;5012973;28;20435;-68
2022/12/01 07:14:41;;;;;;;19.33;9.90;;;2.40;99.90;;;;;;5012693;28;20636;-68
2022/12/01 07:17:08;;;;;;;22.87;10.20;;;2.30;99.90;;;;;;5013397;28;20647;-68
2022/12/01 07:19:33;;;;;;;21.63;10.77;;;2.30;99.90;;;;;;5004296;28;20413;-68
2022/12/01 07:21:59;;;;;;;22.47;10.83;;;2.20;99.90;;;;;;4991958;28;20963;-68
2022/12/01 07:24:25;;;;;;;22.77;9.33;;;2.20;99.90;;;;;;4986304;28;20568;-68
2022/12/01 07:26:50;;;;;;;17.93;9.80;;;2.20;99.90;;;;;;4998458;28;20554;-68
2022/12/01 07:29:16;;;;;;;18.90;11.00;;;2.20;99.90;;;;;;5004522;28;20655;-68
2022/12/01 07:31:42;;;;;;;18.53;9.40;;;2.20;99.90;;;;;;5012375;28;20222;-68
2022/12/01 07:34:10;;;;;;;24.93;10.50;;;2.20;99.90;;;;;;5012626;28;20530;-68
2022/12/01 07:36:36;;;;;;;22.57;9.93;;;2.20;99.90;;;;;;4983220;28;20419;-68
2022/12/01 07:39:06;;;;;;;24.57;10.30;;;2.20;99.90;;;;;;4986481;28;20762;-68
2022/12/01 07:41:33;;;;;;;27.80;11.90;;;2.20;99.90;;;;;;4986412;28;20287;-68
2022/12/01 07:43:59;;;;;;;22.30;10.73;;;2.30;99.90;;;;;;4991097;28;20458;-68
2022/12/01 07:46:26;;;;;;;30.17;11.70;;;2.30;99.90;;;;;;5012352;28;20410;-68
2022/12/01 07:48:53;;;;;;;23.20;11.67;;;2.30;99.90;;;;;;4992322;28;20418;-68
2022/12/01 07:51:21;;;;;;;32.43;10.83;;;2.30;99.90;;;;;;4998062;28;20426;-68
2022/12/01 07:53:48;;;;;;;29.90;11.70;;;2.30;99.90;;;;;;4986051;28;20430;-68
2022/12/01 07:56:15;;;;;;;21.70;11.67;;;2.30;99.90;;;;;;4989304;28;20424;-68
2022/12/01 07:58:41;;;;;;;26.10;11.07;;;2.30;99.90;;;;;;4983766;28;20798;-68
2022/12/01 08:01:12;;;;;;;25.07;11.10;;;2.30;99.90;;;;;;5004420;28;20810;-68
2022/12/01 08:03:38;;;;;;;30.27;12.67;;;2.30;99.90;;;;;;5006146;28;20457;-68
2022/12/01 08:06:04;;;;;;;34.70;12.63;;;2.30;99.90;;;;;;5012200;28;20928;-68
2022/12/01 08:08:32;;;;;;;30.63;13.27;;;2.30;99.90;;;;;;5000199;28;20879;-68
2022/12/01 08:11:04;;;;;;;27.10;12.77;;;2.30;99.90;;;;;;5008445;28;20422;-68
2022/12/01 08:13:30;;;;;;;31.13;12.40;;;2.20;99.90;;;;;;4987561;28;20701;-68
2022/12/01 08:15:55;;;;;;;29.13;13.30;;;2.30;99.90;;;;;;5001162;28;20986;-68
2022/12/01 08:18:21;;;;;;;35.20;11.57;;;2.20;99.90;;;;;;4991784;28;20441;-68
2022/12/01 08:20:48;;;;;;;30.23;13.50;;;2.30;99.90;;;;;;5002564;28;20215;-68
2022/12/01 08:23:14;;;;;;;23.47;11.03;;;2.20;99.90;;;;;;4998428;28;20423;-68
2022/12/01 08:25:39;;;;;;;29.53;12.87;;;2.30;99.90;;;;;;5001315;28;20449;-68
2022/12/01 08:28:05;;;;;;;37.53;13.13;;;2.30;99.90;;;;;;5007411;28;20176;-68
2022/12/01 08:30:30;;;;;;;31.03;13.27;;;2.30;99.90;;;;;;4992502;28;20589;-68
2022/12/01 08:32:57;;;;;;;26.83;12.47;;;2.30;99.90;;;;;;5000874;28;20266;-68
2022/12/01 08:35:23;;;;;;;30.13;11.97;;;2.20;99.90;;;;;;5010886;28;20183;-68
2022/12/01 08:37:52;;;;;;;24.80;12.57;;;2.20;99.90;;;;;;5011334;28;20426;-68
2022/12/01 08:40:18;;;;;;;32.57;12.20;;;2.20;99.90;;;;;;5011717;28;20422;-68
2022/12/01 08:42:43;;;;;;;38.63;13.13;;;2.20;99.90;;;;;;4997970;28;20449;-68
2022/12/01 08:45:10;;;;;;;23.57;11.30;;;2.20;99.90;;;;;;5011526;28;20481;-68
2022/12/01 08:47:35;;;;;;;27.43;13.37;;;2.30;99.90;;;;;;5011479;28;20627;-68
2022/12/01 08:50:03;;;;;;;29.07;11.67;;;2.30;99.90;;;;;;5011537;28;20517;-68
2022/12/01 08:52:31;;;;;;;27.60;12.33;;;2.30;99.90;;;;;;4993687;28;20659;-68
2022/12/01 08:54:57;;;;;;;20.47;10.97;;;2.30;99.90;;;;;;5001062;28;20959;-68
2022/12/01 08:57:22;;;;;;;25.90;12.07;;;2.30;99.90;;;;;;5005340;28;20422;-68
2022/12/01 08:59:48;;;;;;;29.77;13.40;;;2.30;99.90;;;;;;5002972;28;20223;-68
2022/12/01 09:02:15;;;;;;;28.77;12.17;;;2.30;99.90;;;;;;5003452;28;20207;-68
2022/12/01 09:04:41;;;;;;;27.30;11.20;;;2.30;99.90;;;;;;4988347;28;20427;-68
2022/12/01 09:07:10;;;;;;;21.53;10.83;;;2.40;99.90;;;;;;5003623;28;20430;-68
2022/12/01 09:09:36;;;;;;;28.67;10.40;;;2.40;99.90;;;;;;5000609;28;20620;-68
2022/12/01 09:12:02;;;;;;;20.83;11.60;;;2.40;99.90;;;;;;5005446;28;20419;-68
2022/12/01 09:14:28;;;;;;;27.17;10.97;;;2.30;99.90;;;;;;5000556;28;20423;-68
2022/12/01 09:16:54;;;;;;;27.93;10.50;;;2.30;99.90;;;;;;5009762;28;20425;-68
2022/12/01 09:19:20;;;;;;;20.53;10.30;;;2.40;99.90;;;;;;5009695;28;20425;-68
2022/12/01 09:21:46;;;;;;;36.03;12.47;;;2.40;99.90;;;;;;4997864;28;20223;-68
2022/12/01 09:24:14;;;;;;;22.30;10.47;;;2.40;99.90;;;;;;4996457;28;20208;-68
2022/12/01 09:26:40;;;;;;;25.40;9.70;;;2.40;99.90;;;;;;5002372;28;20426;-68
2022/12/01 09:29:09;;;;;;;26.47;12.57;;;2.50;99.90;;;;;;4996918;28;20442;-68
2022/12/01 09:31:35;;;;;;;26.70;12.43;;;2.40;99.90;;;;;;5008801;28;20445;-68
2022/12/01 09:34:04;;;;;;;28.50;12.20;;;2.50;99.90;;;;;;4990035;28;20447;-68
2022/12/01 09:36:31;;;;;;;21.53;10.20;;;2.50;99.90;;;;;;5009022;28;20207;-68
2022/12/01 09:38:57;;;;;;;27.87;12.87;;;2.50;99.90;;;;;;4997521;28;20431;-68
2022/12/01 09:41:38;;;;;;;23.80;11.50;;;2.60;99.90;;;;;;5003575;28;20517;-68
2022/12/01 09:44:12;;;;;;;25.07;11.37;;;2.60;99.90;;;;;;4989775;28;20506;-68
2022/12/01 09:46:45;;;;;;;24.80;11.20;;;2.60;99.90;;;;;;4999414;28;20453;-68
2022/12/01 09:49:17;;;;;;;24.43;11.40;;;2.50;99.90;;;;;;4994443;28;20987;-68
2022/12/01 09:51:43;;;;;;;28.57;12.33;;;2.60;99.90;;;;;;5004554;28;20446;-68
2022/12/01 09:54:11;;;;;;;20.03;9.73;;;2.60;99.90;;;;;;5013103;28;20469;-68
2022/12/01 09:56:54;;;;;;;24.30;11.00;;;2.50;99.90;;;;;;5013630;28;20254;-68
2022/12/01 09:59:25;;;;;;;23.23;11.37;;;2.50;99.90;;;;;;4999432;28;20428;-68
2022/12/01 10:01:55;;;;;;;21.93;10.50;;;2.50;99.90;;;;;;4999551;28;20462;-68
2022/12/01 10:04:34;;;;;;;25.43;10.67;;;2.50;99.90;;;;;;4993416;28;20415;-68
2022/12/01 10:07:03;;;;;;;20.63;9.90;;;2.50;99.90;;;;;;5009273;28;20492;-68
2022/12/01 10:09:40;;;;;;;21.90;10.10;;;2.50;99.90;;;;;;5013064;28;20795;-68
2022/12/01 10:12:14;;;;;;;23.07;11.40;;;2.50;99.90;;;;;;5012101;28;20413;-68
2022/12/01 10:14:42;;;;;;;24.90;10.90;;;2.50;99.90;;;;;;5012498;28;20440;-68
2022/12/01 10:17:20;;;;;;;27.37;11.00;;;2.40;99.90;;;;;;5007735;28;20913;-68
2022/12/01 10:20:03;;;;;;;22.73;11.53;;;2.50;99.90;;;;;;4988625;28;20415;-68
2022/12/01 10:22:50;;;;;;;40.83;14.43;;;2.50;99.90;;;;;;4988652;28;20538;-68
2022/12/01 10:25:24;;;;;;;27.60;10.43;;;2.50;99.90;;;;;;5003163;28;20426;-68
2022/12/01 10:27:58;;;;;;;25.53;11.87;;;2.50;99.90;;;;;;5012492;28;20911;-68
2022/12/01 10:30:24;;;;;;;22.37;11.37;;;2.50;99.90;;;;;;4997972;28;20418;-68
2022/12/01 10:33:07;;;;;;;28.20;12.80;;;2.50;99.90;;;;;;4999895;28;20472;-68
2022/12/01 10:35:35;;;;;;;22.40;10.60;;;2.40;99.90;;;;;;4995832;28;20209;-68
2022/12/01 10:38:05;;;;;;;36.30;11.53;;;2.50;99.90;;;;;;5013828;28;20410;-68
2022/12/01 10:40:34;;;;;;;27.87;12.17;;;2.50;99.90;;;;;;5001017;28;20473;-68
2022/12/01 10:43:00;;;;;;;29.40;10.73;;;2.40;99.90;;;;;;5009933;28;20423;-68
2022/12/01 10:45:29;;;;;;;21.87;10.07;;;2.40;99.90;;;;;;5002105;28;20455;-68
2022/12/01 10:48:17;;;;;;;35.13;12.33;;;2.40;99.90;;;;;;5013040;28;20434;-68
2022/12/01 10:50:54;;;;;;;24.50;10.50;;;2.40;99.90;;;;;;5013559;28;20449;-68
2022/12/01 10:53:22;;;;;;;27.53;11.00;;;2.40;99.90;;;;;;4997640;28;20445;-68
2022/12/01 10:56:03;;;;;;;22.40;10.87;;;2.40;99.90;;;;;;4989957;28;20467;-68
2022/12/01 10:58:31;;;;;;;24.57;11.33;;;2.40;99.90;;;;;;4986121;28;20415;-67
2022/12/01 11:01:04;;;;;;;36.07;13.73;;;2.40;99.90;;;;;;4987407;28;20538;-68
2022/12/01 11:03:34;;;;;;;34.13;10.77;;;2.40;99.90;;;;;;4986138;28;20419;-68
2022/12/01 11:06:03;;;;;;;25.03;12.33;;;2.50;99.90;;;;;;4986933;28;20424;-69
2022/12/01 11:08:55;;;;;;;22.73;11.83;;;2.50;99.90;;;;;;4989171;28;20434;-68
2022/12/01 11:11:26;;;;;;;33.33;12.50;;;2.50;99.90;;;;;;4988391;28;20793;-68
2022/12/01 11:13:53;;;;;;;27.73;12.03;;;2.50;99.90;;;;;;4982217;28;20416;-69
2022/12/01 11:16:52;;;;;;;26.33;10.53;;;2.50;99.90;;;;;;4988708;28;20908;-66
2022/12/01 11:19:31;;;;;;;26.83;11.13;;;2.50;99.90;;;;;;4946378;28;20442;-70
2022/12/01 11:22:19;;;;;;;32.17;12.60;;;2.50;99.90;;;;;;4990443;28;20498;-68
2022/12/01 11:24:57;;;;;;;23.83;10.07;;;2.50;99.90;;;;;;4988581;28;20499;-68
2022/12/01 11:27:33;;;;;;;24.43;11.97;;;2.50;99.90;;;;;;4991019;28;20406;-68
2022/12/01 11:30:06;;;;;;;18.83;9.67;;;2.50;99.90;;;;;;4989579;28;20461;-68
2022/12/01 11:32:37;;;;;;;24.97;11.80;;;2.50;99.90;;;;;;4990345;28;20442;-68
2022/12/01 11:35:12;;;;;;;24.53;10.60;;;2.50;99.90;;;;;;4988838;28;20938;-68
2022/12/01 11:37:44;;;;;;;21.67;9.77;;;2.50;99.90;;;;;;4986262;28;20399;-68
2022/12/01 11:40:50;;;;;;;26.17;12.47;;;2.60;99.90;;;;;;4989555;28;20446;-68
2022/12/01 11:43:26;;;;;;;29.53;11.70;;;2.50;99.90;;;;;;4924662;29;20532;-68
2022/12/01 11:45:53;;;;;;;25.67;11.30;;;2.50;99.90;;;;;;4984160;28;20410;-68
2022/12/01 11:48:27;;;;;;;25.20;10.83;;;2.50;99.90;;;;;;4997256;28;20455;-68
2022/12/01 11:51:05;;;;;;;20.27;9.90;;;2.50;99.90;;;;;;5012509;28;20464;-68
2022/12/01 11:53:37;;;;;;;21.13;13.07;;;2.50;99.90;;;;;;5011002;28;20410;-68
2022/12/01 11:56:27;;;;;;;27.30;11.30;;;2.50;99.90;;;;;;4987040;28;20465;-68
2022/12/01 11:59:08;;;;;;;23.33;11.57;;;2.50;99.90;;;;;;5012049;28;20775;-68
2022/12/01 12:01:53;;;;;;;26.77;12.33;;;2.60;99.90;;;;;;5012100;28;20500;-68
2022/12/01 12:04:31;;;;;;;18.60;10.07;;;2.50;99.90;;;;;;5012310;28;20410;-69
2022/12/01 12:07:20;;;;;;;46.67;14.43;;;2.60;99.90;;;;;;5012578;28;20807;-70
2022/12/01 12:10:16;;;;;;;19.70;10.67;;;2.60;99.90;;;;;;5012159;28;20414;-69
2022/12/01 12:13:10;;;;;;;24.30;9.87;;;2.60;99.90;;;;;;5011334;28;20824;-69
2022/12/01 12:16:00;;;;;;;29.37;11.77;;;2.60;99.90;;;;;;5012153;28;20425;-69
2022/12/01 12:18:37;;;;;;;31.30;12.30;;;2.70;99.90;;;;;;5010659;28;20493;-69
2022/12/01 12:21:24;;;;;;;23.97;11.33;;;2.60;99.90;;;;;;4999627;28;20454;-70
2022/12/01 12:23:55;;;;;;;22.50;10.90;;;2.60;99.90;;;;;;4989159;28;20417;-69
2022/12/01 12:26:26;;;;;;;20.63;9.90;;;2.70;99.90;;;;;;5003457;28;20415;-70
2022/12/01 12:29:29;;;;;;;25.47;10.93;;;2.70;99.90;;;;;;5010598;28;20473;-68
2022/12/01 12:32:04;;;;;;;20.00;10.57;;;2.70;99.90;;;;;;4984886;28;20436;-69
2022/12/01 12:34:37;;;;;;;40.43;13.40;;;2.70;99.90;;;;;;5006902;28;20545;-69
2022/12/01 12:37:03;;;;;;;31.63;12.60;;;2.70;99.90;;;;;;5011060;28;20418;-69
2022/12/01 12:39:50;;;;;;;21.93;10.33;;;2.70;99.90;;;;;;5011306;28;20432;-68
2022/12/01 12:42:51;;;;;;;23.53;10.40;;;2.70;99.90;;;;;;5010909;28;20692;-68
2022/12/01 12:45:42;;;;;;;28.80;10.83;;;2.70;99.90;;;;;;5011301;28;20418;-68
2022/12/01 12:48:32;;;;;;;18.60;9.60;;;2.80;99.90;;;;;;4989864;28;20414;-69
2022/12/01 12:51:10;;;;;;;25.13;12.20;;;2.80;99.90;;;;;;5011794;28;20417;-69
2022/12/01 12:54:04;;;;;;;21.90;10.17;;;2.80;99.90;;;;;;5011354;28;20414;-68
2022/12/01 12:56:32;;;;;;;25.40;10.30;;;2.80;99.90;;;;;;4976088;28;20446;-68
2022/12/01 12:59:47;;;;;;;20.37;9.37;;;2.80;99.90;;;;;;5011105;28;20426;-69
2022/12/01 13:02:38;;;;;;;23.63;11.30;;;2.80;99.90;;;;;;5010742;28;20461;-68
2022/12/01 13:05:09;;;;;;;19.43;9.10;;;2.80;99.90;;;;;;5011072;28;20418;-69
2022/12/01 13:08:06;;;;;;;23.00;10.43;;;2.80;99.90;;;;;;5010382;28;20410;-69
2022/12/01 13:10:45;;;;;;;23.37;11.40;;;2.80;99.90;;;;;;5004031;28;20436;-69